West Union, SC (29696)

02:58 AM EDT del 04 Luglio 2015 (GMT -0400)
Walhalla (Library) | | Change Station
CLOSE
Current Station
Stazione meteo personale
Location: Walhalla, SC
Altitudine: 1060 ft
Stazioni meteo nelle vicinanze

Alt. 1060 ft 34.76 °N, 83.07 °W | Updated 8 minutes ago

Molto nuvoloso
Molto nuvoloso
69.4 °F
Sembra 69.4 °F
N
0.0
Vento Variabile Vento da Sud

Oggi
Massima -- | Minima -- °F
--% Possibilità di precip.
Ieri
Massima -- | Minima -- °F
Precip. -- in
6:23 AM 8:49 PM
Gobba a levante, 94% visible
Pressione 29.96 in
Visibilità 10.0 miglia
Nuvole Sereno
Punto di rugiada 65 °F
Umidità 87%
Piovosità 0.00 in
Spessore del manto nevoso Non disponibile.
Raggi UV 0 fuori da 12
Polline .70 fuori da 12
Qualità dell'aria Non disponibile.
Flu Activity Non disponibile.
METAR KCEU 040654Z AUTO 25004KT 10SM CLR 23/19 A2999 RMK AO2 SLP144 T02280189

More Conditions Fewer Conditions

Pressione 29.96 in
Visibilità 10.0 miglia
Nuvole Sereno
Punto di rugiada 65 °F
Umidità 87%
Piovosità 0.00 in
Spessore del manto nevoso Non disponibile.
Raggi UV 0 fuori da 12
Polline .70 fuori da 12
Qualità dell'aria Non disponibile.
Flu Activity Non disponibile.
METAR KCEU 040654Z AUTO 25004KT 10SM CLR 23/19 A2999 RMK AO2 SLP144 T02280189

More Conditions Fewer Conditions

10-Day Weather Forecast

×

Almanac

Astronomia

Jul. 04, 2015 Alba Tramonto
Ora attuale
Crepuscolo civile
Crepuscolo nautico
Crepuscolo astronomico
Luna
Estensione della luce visibile
Lunghezza del giorno
Tomorrow will be .
, % of the Moon is Illuminated

Gli estremi di oggi

State Highs State Lows

Community

WunderPhotos

Upload Photos

1,834,926 foto caricate!

WunderBlogs® & News

Nearby

Qualità dell'aria

  Qualità dell'aria Indice AQ Inquinante
Not available.

Profondità neve

Stazione Profondità Altitudine

Attività sismica

Città  Distanza Mag. Data & Ora
Minimo Magnitudo Mostrato è 2.5.

Temperature delle acque costiere

Località Temperatura

Stations

Stazioni meteo nelle vicinanze

Ubicazione della stazione Temp. Raffreddamento del vento Punto di rugiada Umidità Vento Precip. Alt. Aggiornato Tipo